createdAt,value
2022-08-16T00:01:24.812Z,10.43
2022-08-16T00:03:54.023Z,10.70
2022-08-16T00:06:22.717Z,10.32
2022-08-16T00:08:49.946Z,11.18
2022-08-16T00:11:18.049Z,11.25
2022-08-16T00:13:53.687Z,10.85
2022-08-16T00:17:05.594Z,10.77
2022-08-16T00:19:25.036Z,11.68
2022-08-16T00:22:01.669Z,11.45
2022-08-16T00:24:34.572Z,10.80
2022-08-16T00:27:03.577Z,11.48
2022-08-16T00:29:30.810Z,10.48
2022-08-16T00:32:01.300Z,11.40
2022-08-16T00:34:43.465Z,11.90
2022-08-16T00:37:21.146Z,10.90
2022-08-16T00:39:58.180Z,11.18
2022-08-16T00:42:32.294Z,11.60
2022-08-16T00:45:09.344Z,11.32
2022-08-16T00:47:48.862Z,11.10
2022-08-16T00:50:20.489Z,11.40
2022-08-16T00:52:51.052Z,11.18
2022-08-16T00:55:22.083Z,11.52
2022-08-16T00:57:59.805Z,11.32
2022-08-16T01:00:31.288Z,11.30
2022-08-16T01:03:02.875Z,11.43
2022-08-16T01:05:30.641Z,10.85
2022-08-16T01:08:00.114Z,11.82
2022-08-16T01:10:33.214Z,12.05
2022-08-16T01:13:22.673Z,11.82
2022-08-16T01:16:13.183Z,10.32
2022-08-16T01:19:05.468Z,11.05
2022-08-16T01:21:47.817Z,11.27
2022-08-16T01:24:51.952Z,12.80
2022-08-16T01:27:27.928Z,12.50
2022-08-16T01:30:20.073Z,11.63
2022-08-16T01:33:01.304Z,12.55
2022-08-16T01:35:52.510Z,12.23
2022-08-16T01:38:25.718Z,11.07
2022-08-16T01:41:01.854Z,11.32
2022-08-16T01:43:31.356Z,11.82
2022-08-16T01:46:31.210Z,12.70
2022-08-16T01:48:48.811Z,11.10
2022-08-16T01:51:18.522Z,11.18
2022-08-16T01:53:55.315Z,12.40
2022-08-16T01:56:24.598Z,11.43
2022-08-16T01:58:54.935Z,11.82
2022-08-16T02:01:23.076Z,11.07
2022-08-16T02:03:53.201Z,12.60
2022-08-16T02:06:34.726Z,11.40
2022-08-16T02:09:06.362Z,11.75
2022-08-16T02:11:47.720Z,11.38
2022-08-16T02:14:18.601Z,12.90
2022-08-16T02:16:49.742Z,12.07
2022-08-16T02:19:18.595Z,12.27
2022-08-16T02:22:09.231Z,11.73
2022-08-16T02:24:42.314Z,12.77
2022-08-16T02:27:13.363Z,11.23
2022-08-16T02:29:41.548Z,11.80
2022-08-16T02:32:50.117Z,12.73
2022-08-16T02:34:58.472Z,12.65
2022-08-16T02:37:44.748Z,13.63
2022-08-16T02:40:13.344Z,12.98
2022-08-16T02:42:49.693Z,12.63
2022-08-16T02:45:20.439Z,11.85
2022-08-16T02:48:00.644Z,12.18
2022-08-16T02:50:53.976Z,12.43
2022-08-16T02:53:27.232Z,13.45
2022-08-16T02:55:54.323Z,13.27
2022-08-16T02:58:25.005Z,12.93
2022-08-16T03:00:57.833Z,12.70
2022-08-16T03:03:26.854Z,12.80
2022-08-16T03:06:41.376Z,12.93
2022-08-16T03:09:01.773Z,13.77
2022-08-16T03:11:35.600Z,12.80
2022-08-16T03:14:02.682Z,13.82
2022-08-16T03:16:39.000Z,12.50
2022-08-16T03:19:20.993Z,11.65
2022-08-16T03:21:52.628Z,12.52
2022-08-16T03:24:29.019Z,13.05
2022-08-16T03:27:02.783Z,14.68
2022-08-16T03:29:33.803Z,13.68
2022-08-16T03:32:02.371Z,11.75
2022-08-16T03:34:31.175Z,12.73
2022-08-16T03:36:58.345Z,13.63
2022-08-16T03:39:25.181Z,12.93
2022-08-16T03:42:00.018Z,11.77
2022-08-16T03:47:18.526Z,13.32
2022-08-16T03:49:51.796Z,13.27
2022-08-16T03:52:20.682Z,13.98
2022-08-16T03:54:53.241Z,13.90
2022-08-16T03:57:20.647Z,13.60
2022-08-16T03:59:47.370Z,14.35
2022-08-16T04:02:22.367Z,14.18
2022-08-16T04:04:58.553Z,13.02
2022-08-16T04:07:25.570Z,14.05
2022-08-16T04:09:52.519Z,15.43
2022-08-16T04:12:54.536Z,13.80
2022-08-16T04:15:10.530Z,13.82
2022-08-16T04:17:40.855Z,13.63
2022-08-16T04:20:31.440Z,14.48
2022-08-16T04:22:56.414Z,13.82
2022-08-16T04:25:28.070Z,13.15
2022-08-16T04:27:56.972Z,13.00
2022-08-16T04:30:32.010Z,13.25
2022-08-16T04:33:02.173Z,14.20
2022-08-16T04:35:34.324Z,13.05
2022-08-16T04:38:11.106Z,14.07
2022-08-16T04:40:48.272Z,13.57
2022-08-16T04:43:18.614Z,14.45
2022-08-16T04:45:46.380Z,13.52
2022-08-16T04:48:22.052Z,14.45
2022-08-16T04:50:59.363Z,13.95
2022-08-16T04:53:26.033Z,15.00
2022-08-16T04:55:53.367Z,16.63
2022-08-16T04:58:45.254Z,18.05
2022-08-16T05:01:08.660Z,17.25
2022-08-16T05:03:35.390Z,16.50
2022-08-16T05:06:09.503Z,16.20
2022-08-16T05:08:37.441Z,15.35
2022-08-16T05:11:08.595Z,13.95
2022-08-16T05:13:41.429Z,13.23
2022-08-16T05:16:16.674Z,14.07
2022-08-16T05:18:47.965Z,14.52
2022-08-16T05:21:14.968Z,13.30
2022-08-16T05:23:44.394Z,14.27
2022-08-16T05:26:20.422Z,15.63
2022-08-16T05:28:55.196Z,14.68
2022-08-16T05:31:24.126Z,13.43
2022-08-16T05:33:57.672Z,13.55
2022-08-16T05:36:24.924Z,13.95
2022-08-16T05:39:05.835Z,12.45
2022-08-16T05:41:33.126Z,12.95
2022-08-16T05:44:22.904Z,12.52
2022-08-16T05:47:00.822Z,12.00
2022-08-16T05:49:39.471Z,11.85
2022-08-16T05:52:11.598Z,13.45
2022-08-16T05:54:46.606Z,12.82
2022-08-16T05:57:13.910Z,13.18
2022-08-16T05:59:41.867Z,12.93
2022-08-16T06:02:08.627Z,12.68
2022-08-16T06:04:37.585Z,12.80
2022-08-16T06:07:08.800Z,13.02
2022-08-16T06:09:43.722Z,13.38
2022-08-16T06:12:26.804Z,13.60
2022-08-16T06:17:42.363Z,12.57
2022-08-16T06:20:23.132Z,12.02
2022-08-16T06:22:57.523Z,12.68
2022-08-16T06:25:35.993Z,12.32
2022-08-16T06:28:09.485Z,11.05
2022-08-16T06:30:44.056Z,11.80
2022-08-16T06:33:22.307Z,10.82
2022-08-16T06:35:54.652Z,11.60
2022-08-16T06:38:33.245Z,12.07
2022-08-16T06:41:13.454Z,11.40
2022-08-16T06:43:41.785Z,10.95
2022-08-16T06:46:21.965Z,10.80
2022-08-16T06:48:51.767Z,12.85
2022-08-16T06:51:18.729Z,11.38
2022-08-16T06:53:46.373Z,11.57
2022-08-16T06:56:23.498Z,10.95
2022-08-16T06:58:52.421Z,11.38
2022-08-16T07:01:34.387Z,11.38
2022-08-16T07:04:11.930Z,11.15
2022-08-16T07:06:43.726Z,11.80
2022-08-16T07:09:13.373Z,11.23
2022-08-16T07:11:47.476Z,10.95
2022-08-16T07:14:26.405Z,13.07
2022-08-16T07:16:58.858Z,10.48
2022-08-16T07:20:01.748Z,10.98
2022-08-16T07:22:36.751Z,10.02
2022-08-16T07:25:05.352Z,10.10
2022-08-16T07:27:37.255Z,10.00
2022-08-16T07:30:45.980Z,9.75
2022-08-16T07:32:56.188Z,9.30
2022-08-16T07:35:23.597Z,10.27
2022-08-16T07:37:50.271Z,9.25
2022-08-16T07:40:37.009Z,7.75
2022-08-16T07:43:07.270Z,9.10
2022-08-16T07:45:37.885Z,8.90
2022-08-16T07:48:11.903Z,8.82
2022-08-16T07:50:55.712Z,7.95
2022-08-16T07:53:24.642Z,8.32
2022-08-16T07:55:55.522Z,8.13
2022-08-16T07:58:33.891Z,8.48
2022-08-16T08:01:10.612Z,8.32
2022-08-16T08:03:48.481Z,7.78
2022-08-16T08:06:21.328Z,7.90
2022-08-16T08:08:57.165Z,8.02
2022-08-16T08:11:25.061Z,7.88
2022-08-16T08:13:57.581Z,8.07
2022-08-16T08:16:33.132Z,7.93
2022-08-16T08:19:02.952Z,7.85
2022-08-16T08:21:58.253Z,7.95
2022-08-16T08:24:18.745Z,8.02
2022-08-16T08:26:50.340Z,8.00
2022-08-16T08:29:22.512Z,7.93
2022-08-16T08:31:49.927Z,7.80
2022-08-16T08:34:18.792Z,7.65
2022-08-16T08:36:45.719Z,8.68
2022-08-16T08:39:15.639Z,8.65
2022-08-16T08:41:49.334Z,7.32
2022-08-16T08:44:28.537Z,8.25
2022-08-16T08:47:11.063Z,8.32
2022-08-16T08:49:50.743Z,7.30
2022-08-16T08:52:34.721Z,7.93
2022-08-16T08:55:09.184Z,7.70
2022-08-16T08:57:38.330Z,7.72
2022-08-16T09:00:07.910Z,7.10
2022-08-16T09:02:40.416Z,7.88
2022-08-16T09:05:15.602Z,6.97
2022-08-16T09:08:00.351Z,6.63
2022-08-16T09:10:29.481Z,7.35
2022-08-16T09:12:58.198Z,7.55
2022-08-16T09:15:32.658Z,7.07
2022-08-16T09:18:25.417Z,6.93
2022-08-16T09:21:00.182Z,9.80
2022-08-16T09:23:36.668Z,7.10
2022-08-16T09:26:44.907Z,6.10
2022-08-16T09:29:15.019Z,6.90
2022-08-16T09:31:43.269Z,6.10
2022-08-16T09:34:17.162Z,6.60
2022-08-16T09:36:46.184Z,6.20
2022-08-16T09:39:16.029Z,5.95
2022-08-16T09:41:53.231Z,5.35
2022-08-16T09:45:11.655Z,5.22
2022-08-16T09:47:11.025Z,5.63
2022-08-16T09:49:41.152Z,5.93
2022-08-16T09:52:09.455Z,5.30
2022-08-16T09:54:38.915Z,5.88
2022-08-16T09:57:14.849Z,5.95
2022-08-16T09:59:42.385Z,6.10
2022-08-16T10:02:26.846Z,6.18
2022-08-16T10:04:58.580Z,6.43
2022-08-16T10:07:38.266Z,6.30
2022-08-16T10:10:18.678Z,6.18
2022-08-16T10:13:12.647Z,5.95
2022-08-16T10:15:55.745Z,5.68
2022-08-16T10:19:00.509Z,6.30
2022-08-16T10:21:10.269Z,6.07
2022-08-16T10:23:37.217Z,6.53
2022-08-16T10:27:18.288Z,6.38
2022-08-16T10:28:52.352Z,6.90
2022-08-16T10:31:43.650Z,6.65
2022-08-16T10:34:30.967Z,6.40
2022-08-16T10:36:54.203Z,7.47
2022-08-16T10:39:24.566Z,7.13
2022-08-16T10:41:51.414Z,7.07
2022-08-16T10:44:18.214Z,6.97
2022-08-16T10:46:46.181Z,6.63
2022-08-16T10:49:18.150Z,6.68
2022-08-16T10:52:01.846Z,6.80
2022-08-16T10:57:00.529Z,6.78
2022-08-16T10:59:38.944Z,6.78
2022-08-16T11:02:59.169Z,6.95
2022-08-16T11:05:14.085Z,6.75
2022-08-16T11:13:58.310Z,7.10
2022-08-16T11:19:05.231Z,6.53
2022-08-16T11:21:33.717Z,6.47
2022-08-16T11:24:02.125Z,6.40
2022-08-16T11:26:29.811Z,6.57
2022-08-16T11:29:14.503Z,7.07
2022-08-16T11:31:45.710Z,6.80
2022-08-16T11:34:20.871Z,6.18
2022-08-16T11:36:54.006Z,5.93
2022-08-16T11:39:29.737Z,5.97
2022-08-16T11:41:57.968Z,5.68
2022-08-16T11:44:52.957Z,6.45
2022-08-16T11:47:15.312Z,6.22
2022-08-16T11:49:42.468Z,6.97
2022-08-16T11:52:09.355Z,5.72
2022-08-16T11:54:41.646Z,5.93
2022-08-16T11:57:12.158Z,5.80
2022-08-16T11:59:40.261Z,6.47
2022-08-16T12:02:31.607Z,6.18
2022-08-16T12:04:55.914Z,7.30
2022-08-16T12:07:23.514Z,7.05
2022-08-16T12:09:53.201Z,6.95
2022-08-16T12:12:21.264Z,7.05
2022-08-16T12:14:55.878Z,6.50
2022-08-16T12:17:28.101Z,6.57
2022-08-16T12:19:58.444Z,8.20
2022-08-16T12:22:25.362Z,7.63
2022-08-16T12:24:54.857Z,7.63
2022-08-16T12:27:24.176Z,7.80
2022-08-16T12:29:52.840Z,8.55
2022-08-16T12:32:37.475Z,7.45
2022-08-16T12:35:08.663Z,8.05
2022-08-16T12:37:35.624Z,8.23
2022-08-16T12:40:02.694Z,7.78
2022-08-16T12:42:35.506Z,7.63
2022-08-16T12:45:06.044Z,7.32
2022-08-16T12:47:51.406Z,8.23
2022-08-16T12:50:20.512Z,7.07
2022-08-16T12:52:52.943Z,7.50
2022-08-16T12:55:20.845Z,7.18
2022-08-16T12:57:58.553Z,7.03
2022-08-16T13:00:34.032Z,7.25
2022-08-16T13:03:03.550Z,7.50
2022-08-16T13:08:03.333Z,7.57
2022-08-16T13:10:38.152Z,8.02
2022-08-16T13:13:08.739Z,6.97
2022-08-16T13:15:55.710Z,7.10
2022-08-16T13:18:32.678Z,8.70
2022-08-16T13:21:06.726Z,7.97
2022-08-16T13:23:35.798Z,7.75
2022-08-16T13:26:03.436Z,7.75
2022-08-16T13:28:30.091Z,7.75
2022-08-16T13:30:58.468Z,8.23
2022-08-16T13:33:30.555Z,9.30
2022-08-16T13:36:02.048Z,10.13
2022-08-16T13:38:31.380Z,9.52
2022-08-16T13:40:59.799Z,9.02
2022-08-16T13:43:28.011Z,10.15
2022-08-16T13:45:56.791Z,9.57
2022-08-16T13:48:26.058Z,7.53
2022-08-16T13:51:00.592Z,7.20
2022-08-16T13:53:30.911Z,6.60
2022-08-16T13:56:02.532Z,8.10
2022-08-16T13:58:37.513Z,7.22
2022-08-16T14:01:18.534Z,8.60
2022-08-16T14:03:46.852Z,7.65
2022-08-16T14:06:14.859Z,7.32
2022-08-16T14:08:43.188Z,7.43
2022-08-16T14:11:14.854Z,8.13
2022-08-16T14:13:43.872Z,7.47
2022-08-16T14:16:12.622Z,6.07
2022-08-16T14:18:53.139Z,6.35
2022-08-16T14:21:23.676Z,5.90
2022-08-16T14:23:52.359Z,5.93
2022-08-16T14:26:21.539Z,6.05
2022-08-16T14:28:50.703Z,5.85
2022-08-16T14:31:18.482Z,6.38
2022-08-16T14:33:45.993Z,5.82
2022-08-16T14:36:25.034Z,6.22
2022-08-16T14:38:56.896Z,6.07
2022-08-16T14:41:28.945Z,6.22
2022-08-16T14:43:56.646Z,6.07
2022-08-16T14:46:24.070Z,5.80
2022-08-16T14:48:51.103Z,6.00
2022-08-16T14:51:20.465Z,5.47
2022-08-16T14:53:52.712Z,5.43
2022-08-16T14:56:38.563Z,5.10
2022-08-16T14:59:06.861Z,6.22
2022-08-16T15:01:57.378Z,5.45
2022-08-16T15:04:40.519Z,6.35
2022-08-16T15:07:12.850Z,7.38
2022-08-16T15:10:00.623Z,8.30
2022-08-16T15:12:34.004Z,7.20
2022-08-16T15:15:13.126Z,6.77
2022-08-16T15:17:53.990Z,6.97
2022-08-16T15:20:22.574Z,7.05
2022-08-16T15:22:50.719Z,6.88
2022-08-16T15:25:41.326Z,7.65
2022-08-16T15:28:23.600Z,7.53
2022-08-16T15:31:06.060Z,6.88
2022-08-16T15:33:35.294Z,7.30
2022-08-16T15:36:03.001Z,8.10
2022-08-16T15:38:54.717Z,7.85
2022-08-16T15:41:42.528Z,9.00
2022-08-16T15:44:17.967Z,8.73
2022-08-16T15:46:55.439Z,8.77
2022-08-16T15:49:38.039Z,9.43
2022-08-16T15:52:24.795Z,8.48
2022-08-16T15:54:59.524Z,8.93
2022-08-16T15:57:28.549Z,8.95
2022-08-16T16:00:14.777Z,10.07
2022-08-16T16:02:43.940Z,10.32
2022-08-16T16:05:10.983Z,9.65
2022-08-16T16:07:41.041Z,9.65
2022-08-16T16:10:30.099Z,9.57
2022-08-16T16:13:04.922Z,9.43
2022-08-16T16:15:44.987Z,8.73
2022-08-16T16:18:13.403Z,7.45
2022-08-16T16:20:43.946Z,6.30
2022-08-16T16:23:11.434Z,5.88
2022-08-16T16:25:40.070Z,8.13
2022-08-16T16:29:06.537Z,7.53
2022-08-16T16:31:04.982Z,8.55
2022-08-16T16:33:39.794Z,9.68
2022-08-16T16:38:35.333Z,9.27
2022-08-16T16:41:09.927Z,10.98
2022-08-16T16:43:43.922Z,10.50
2022-08-16T16:46:32.767Z,10.75
2022-08-16T16:49:04.105Z,10.13
2022-08-16T16:51:32.588Z,10.77
2022-08-16T16:54:08.646Z,9.77
2022-08-16T16:56:37.771Z,9.57
2022-08-16T16:59:10.303Z,10.40
2022-08-16T17:02:00.529Z,10.18
2022-08-16T17:04:31.828Z,11.52
2022-08-16T17:07:02.732Z,11.25
2022-08-16T17:09:30.066Z,11.90
2022-08-16T17:11:57.260Z,13.77
2022-08-16T17:14:33.340Z,11.40
2022-08-16T17:17:11.709Z,11.48
2022-08-16T17:19:45.617Z,11.30
2022-08-16T17:22:15.538Z,10.77
2022-08-16T17:24:44.790Z,11.27
2022-08-16T17:27:18.054Z,11.48
2022-08-16T17:29:51.406Z,11.43
2022-08-16T17:32:34.315Z,11.55
2022-08-16T17:35:18.469Z,11.40
2022-08-16T17:37:51.831Z,13.65
2022-08-16T17:40:34.013Z,12.27
2022-08-16T17:43:14.641Z,12.50
2022-08-16T17:45:42.699Z,13.10
2022-08-16T17:48:09.692Z,13.77
2022-08-16T17:50:38.863Z,13.15
2022-08-16T17:53:06.675Z,13.02
2022-08-16T17:55:36.768Z,12.02
2022-08-16T17:58:14.555Z,11.80
2022-08-16T18:00:53.313Z,12.13
2022-08-16T18:04:07.079Z,12.25
2022-08-16T18:06:25.089Z,12.60
2022-08-16T18:09:01.732Z,12.65
2022-08-16T18:11:30.162Z,13.00
2022-08-16T18:13:59.837Z,12.73
2022-08-16T18:16:27.067Z,14.02
2022-08-16T18:18:55.787Z,13.85
2022-08-16T18:21:41.235Z,13.32
2022-08-16T18:26:35.814Z,13.18
2022-08-16T18:29:02.637Z,13.50
2022-08-16T18:31:29.631Z,13.88
2022-08-16T18:33:56.709Z,12.60
2022-08-16T18:36:24.655Z,12.45
2022-08-16T18:38:53.102Z,12.50
2022-08-16T18:41:23.050Z,13.57
2022-08-16T18:44:04.792Z,13.85
2022-08-16T18:46:40.596Z,13.48
2022-08-16T18:49:07.524Z,12.18
2022-08-16T18:51:36.981Z,11.35
2022-08-16T18:54:04.839Z,12.82
2022-08-16T18:56:55.469Z,13.98
2022-08-16T18:59:18.458Z,12.75
2022-08-16T19:01:46.746Z,13.98
2022-08-16T19:04:55.400Z,14.05
2022-08-16T19:07:01.175Z,13.95
2022-08-16T19:09:27.892Z,14.68
2022-08-16T19:11:54.792Z,15.40
2022-08-16T19:14:24.825Z,15.40
2022-08-16T19:16:51.639Z,14.80
2022-08-16T19:19:18.309Z,14.02
2022-08-16T19:21:45.054Z,14.88
2022-08-16T19:24:17.766Z,14.93
2022-08-16T19:26:45.478Z,14.75
2022-08-16T19:29:12.243Z,12.13
2022-08-16T19:31:40.499Z,13.70
2022-08-16T19:34:08.270Z,13.68
2022-08-16T19:36:37.565Z,14.93
2022-08-16T19:39:11.198Z,15.95
2022-08-16T19:41:52.076Z,16.55
2022-08-16T19:44:22.640Z,15.40
2022-08-16T19:46:50.013Z,15.88
2022-08-16T19:49:17.196Z,16.23
2022-08-16T19:51:45.766Z,16.98
2022-08-16T19:54:12.489Z,16.00
2022-08-16T19:56:39.236Z,15.70
2022-08-16T19:59:40.565Z,16.23
2022-08-16T20:01:56.659Z,15.57
2022-08-16T20:04:25.694Z,14.98
2022-08-16T20:06:53.303Z,15.95
2022-08-16T20:09:22.156Z,15.55
2022-08-16T20:11:52.245Z,12.75
2022-08-16T20:14:25.392Z,14.32
2022-08-16T20:17:01.472Z,14.05
2022-08-16T20:19:33.409Z,14.70
2022-08-16T20:22:42.105Z,15.60
2022-08-16T20:25:09.740Z,13.60
2022-08-16T20:27:39.135Z,14.48
2022-08-16T20:30:08.944Z,15.70
2022-08-16T20:32:40.426Z,13.57
2022-08-16T20:35:10.575Z,12.50
2022-08-16T20:37:38.981Z,12.93
2022-08-16T20:40:28.336Z,11.95
2022-08-16T20:43:04.833Z,12.35
2022-08-16T20:45:33.727Z,13.63
2022-08-16T20:48:00.445Z,11.82
2022-08-16T20:50:27.190Z,13.38
2022-08-16T20:52:57.321Z,13.00
2022-08-16T20:55:25.441Z,13.20
2022-08-16T20:57:55.772Z,13.93
2022-08-16T21:00:23.027Z,12.98
2022-08-16T21:02:50.331Z,14.52
2022-08-16T21:05:25.870Z,14.27
2022-08-16T21:08:00.570Z,13.20
2022-08-16T21:10:29.959Z,12.40
2022-08-16T21:12:59.824Z,12.15
2022-08-16T21:15:27.678Z,12.68
2022-08-16T21:17:55.109Z,11.35
2022-08-16T21:20:26.760Z,13.23
2022-08-16T21:23:01.309Z,13.23
2022-08-16T21:25:30.494Z,14.27
2022-08-16T21:28:39.221Z,14.30
2022-08-16T21:30:50.238Z,14.55
2022-08-16T21:33:19.449Z,14.90
2022-08-16T21:35:48.332Z,14.23
2022-08-16T21:38:29.655Z,14.00
2022-08-16T21:40:58.420Z,13.82
2022-08-16T21:43:26.690Z,14.23
2022-08-16T21:45:55.790Z,13.95
2022-08-16T21:48:34.346Z,13.00
2022-08-16T21:51:10.769Z,13.50
2022-08-16T21:53:38.369Z,13.55
2022-08-16T21:56:06.641Z,14.13
2022-08-16T21:58:37.625Z,14.20
2022-08-16T22:01:05.128Z,14.25
2022-08-16T22:03:35.542Z,15.20
2022-08-16T22:06:13.153Z,14.45
2022-08-16T22:08:48.921Z,13.88
2022-08-16T22:11:24.780Z,14.13
2022-08-16T22:13:58.512Z,13.93
2022-08-16T22:16:29.690Z,14.48
2022-08-16T22:18:56.418Z,13.52
2022-08-16T22:21:23.325Z,12.50
2022-08-16T22:23:57.267Z,13.30
2022-08-16T22:29:06.476Z,14.20
2022-08-16T22:31:34.451Z,14.05
2022-08-16T22:34:04.457Z,14.20
2022-08-16T22:36:33.407Z,15.25
2022-08-16T22:39:05.554Z,14.73
2022-08-16T22:41:35.467Z,13.95
2022-08-16T22:44:04.315Z,14.68
2022-08-16T22:46:31.767Z,13.73
2022-08-16T22:48:58.757Z,13.57
2022-08-16T22:51:28.438Z,14.63
2022-08-16T22:53:56.147Z,13.77
2022-08-16T22:56:26.219Z,13.57
2022-08-16T22:58:53.265Z,13.35
2022-08-16T23:01:22.284Z,11.65
2022-08-16T23:03:49.147Z,12.10
2022-08-16T23:06:17.107Z,11.07
2022-08-16T23:08:44.136Z,10.07
2022-08-16T23:11:21.428Z,10.90
2022-08-16T23:13:53.709Z,10.13
2022-08-16T23:16:32.262Z,10.25
2022-08-16T23:19:03.333Z,10.82
2022-08-16T23:21:30.224Z,11.23
2022-08-16T23:23:56.924Z,10.55
2022-08-16T23:26:44.874Z,10.38
2022-08-16T23:29:16.043Z,9.07
2022-08-16T23:31:50.570Z,9.13
2022-08-16T23:34:21.156Z,9.43
2022-08-16T23:36:47.826Z,9.18
2022-08-16T23:39:14.484Z,9.95
2022-08-16T23:41:41.252Z,8.77
2022-08-16T23:44:57.469Z,8.50
2022-08-16T23:46:55.633Z,8.43
2022-08-16T23:50:01.988Z,8.98
2022-08-16T23:52:11.508Z,9.35
2022-08-16T23:54:38.415Z,9.23
2022-08-16T23:57:05.350Z,9.13
2022-08-16T23:59:52.185Z,9.57
